Time;durP1;ratioP1;P1;durP2;ratioP2;P2;SDS_P1;SDS_P2;PMS_P1;PMS_P2;Temp;Humidity;BMP_temperature;BMP_pressure;BME280_temperature;BME280_humidity;BME280_pressure;Samples;Min_cycle;Max_cycle;Signal;HPM_P1;HPM_P2
2022/06/05 00:01:58;;;;;;;5.07;3.25;;;;;;;18.20;100.00;99044.03;5090931;28;20097;-64
2022/06/05 00:04:48;;;;;;;5.72;3.67;;;;;;;18.07;100.00;99032.91;5099929;28;20043;-64
2022/06/05 00:07:45;;;;;;;7.40;5.28;;;;;;;17.62;100.00;99014.13;5096539;28;20047;-65
2022/06/05 00:10:46;;;;;;;8.07;6.10;;;;;;;17.19;100.00;99011.03;5130581;27;20054;-65
2022/06/05 00:13:34;;;;;;;12.05;6.43;;;;;;;17.08;100.00;99009.34;5110402;28;20043;-63
2022/06/05 00:16:24;;;;;;;10.20;6.30;;;;;;;17.09;100.00;99017.19;5108313;28;20071;-65
2022/06/05 00:19:10;;;;;;;10.32;6.95;;;;;;;17.14;100.00;99013.31;5101896;28;20082;-65
2022/06/05 00:21:54;;;;;;;11.52;8.18;;;;;;;17.18;100.00;99026.09;5094556;28;20042;-65
2022/06/05 00:24:40;;;;;;;7.60;4.55;;;;;;;17.15;100.00;99021.09;5106861;28;20132;-65
2022/06/05 00:27:48;;;;;;;10.25;5.53;;;;;;;17.27;100.00;99016.47;5102237;28;20100;-65
2022/06/05 00:31:07;;;;;;;12.15;6.57;;;;;;;17.19;100.00;99018.97;5111061;28;20537;-65
2022/06/05 00:33:51;;;;;;;13.70;8.50;;;;;;;17.09;100.00;99019.84;5109145;28;20032;-64
2022/06/05 00:36:44;;;;;;;3.88;3.03;;;;;;;17.30;100.00;99012.72;5108159;28;20443;-65
2022/06/05 00:39:42;;;;;;;5.50;2.97;;;;;;;17.61;100.00;99020.41;5103973;28;20039;-64
2022/06/05 00:42:31;;;;;;;5.55;3.80;;;;;;;17.77;100.00;99024.25;5110945;28;20032;-64
2022/06/05 00:45:17;;;;;;;8.90;6.32;;;;;;;17.85;100.00;99013.78;5115515;28;20043;-64
2022/06/05 00:48:02;;;;;;;6.18;4.70;;;;;;;17.92;100.00;99004.25;5117219;28;20050;-65
2022/06/05 00:50:50;;;;;;;11.30;6.90;;;;;;;17.72;100.00;98999.03;5111973;28;20051;-64
2022/06/05 00:53:35;;;;;;;9.88;6.07;;;;;;;17.58;100.00;99003.00;5094710;27;20048;-64
2022/06/05 00:56:20;;;;;;;9.90;7.00;;;;;;;17.36;100.00;99017.44;5101618;28;20436;-64
2022/06/05 00:59:05;;;;;;;6.03;4.05;;;;;;;17.43;100.00;99007.09;5108614;28;20032;-65
2022/06/05 01:01:51;;;;;;;8.23;5.28;;;;;;;17.55;100.00;99013.03;5114391;28;20038;-65
2022/06/05 01:04:39;;;;;;;8.23;5.43;;;;;;;17.64;100.00;99006.91;5113702;28;20035;-64
2022/06/05 01:07:24;;;;;;;10.32;6.35;;;;;;;17.65;100.00;99002.41;5099353;28;20108;-65
2022/06/05 01:10:10;;;;;;;6.82;4.80;;;;;;;17.67;100.00;99003.09;5114624;28;20048;-64
2022/06/05 01:13:10;;;;;;;9.60;6.25;;;;;;;17.75;100.00;98989.97;5109094;28;20046;-65
2022/06/05 01:16:10;;;;;;;5.20;2.83;;;;;;;17.84;100.00;98994.38;5104076;28;20043;-65
2022/06/05 01:19:04;;;;;;;6.38;3.83;;;;;;;18.00;100.00;98989.44;5101813;28;20100;-64
2022/06/05 01:22:01;;;;;;;8.23;5.90;;;;;;;17.92;100.00;98982.22;5092918;28;20549;-64
2022/06/05 01:25:12;;;;;;;10.57;6.68;;;;;;;17.57;100.00;98981.94;5094411;28;20048;-64
2022/06/05 01:28:01;;;;;;;10.50;7.35;;;;;;;17.16;100.00;98974.25;5093261;28;20059;-64
2022/06/05 01:31:00;;;;;;;11.77;7.78;;;;;;;17.09;100.00;98977.50;5101165;28;20478;-64
2022/06/05 01:34:12;;;;;;;4.78;3.83;;;;;;;17.29;100.00;98977.44;5113801;28;20086;-64
2022/06/05 01:37:03;;;;;;;4.95;3.95;;;;;;;17.48;100.00;98968.59;5113578;28;20035;-65
2022/06/05 01:40:00;;;;;;;6.50;3.63;;;;;;;17.64;100.00;98972.47;5114821;28;20122;-65
2022/06/05 01:42:49;;;;;;;4.05;2.88;;;;;;;17.68;100.00;98968.53;5100430;28;20114;-66
2022/06/05 01:46:12;;;;;;;5.72;3.60;;;;;;;17.60;100.00;98973.72;5097307;28;20113;-65
2022/06/05 01:49:21;;;;;;;5.57;4.32;;;;;;;17.59;100.00;98972.88;5103300;28;20545;-65
2022/06/05 01:52:40;;;;;;;7.57;5.70;;;;;;;17.60;100.00;98969.25;5108382;28;20046;-65
2022/06/05 01:55:30;;;;;;;9.50;5.68;;;;;;;17.57;100.00;98963.41;5107712;28;20070;-65
2022/06/05 01:58:18;;;;;;;7.35;3.92;;;;;;;17.68;100.00;98963.22;5093826;28;20040;-66
2022/06/05 02:01:08;;;;;;;4.35;3.33;;;;;;;17.80;100.00;98961.22;5111195;28;20039;-65
2022/06/05 02:04:04;;;;;;;10.07;7.57;;;;;;;17.49;100.00;98962.31;5113667;28;20047;-65
2022/06/05 02:06:54;;;;;;;12.05;7.18;;;;;;;17.18;100.00;98962.56;5104904;28;20487;-65
2022/06/05 02:09:47;;;;;;;8.15;5.53;;;;;;;17.10;100.00;98950.03;5112019;28;20136;-64
2022/06/05 02:12:33;;;;;;;6.72;5.07;;;;;;;17.17;100.00;98949.50;5114238;28;20555;-66
2022/06/05 02:15:18;;;;;;;11.40;7.90;;;;;;;16.96;100.00;98956.59;5094562;28;20075;-65
2022/06/05 02:18:04;;;;;;;13.60;7.65;;;;;;;16.83;100.00;98950.75;5092334;28;20382;-67
2022/06/05 02:20:50;;;;;;;12.60;8.02;;;;;;;16.66;100.00;98952.31;5133403;27;20043;-66
2022/06/05 02:23:37;;;;;;;9.98;6.70;;;;;;;16.77;100.00;98951.31;5112104;28;20056;-66
2022/06/05 02:26:22;;;;;;;10.30;5.97;;;;;;;16.74;100.00;98949.81;5112250;28;20043;-66
2022/06/05 02:29:16;;;;;;;8.82;6.93;;;;;;;16.94;100.00;98942.66;5102091;28;20078;-65
2022/06/05 02:32:39;;;;;;;9.65;6.38;;;;;;;17.17;100.00;98941.53;5105370;28;20039;-64
2022/06/05 02:35:27;;;;;;;10.30;7.05;;;;;;;17.23;100.00;98941.78;5083479;28;20394;-66
2022/06/05 02:38:39;;;;;;;7.78;5.60;;;;;;;17.14;100.00;98952.44;5095514;28;20127;-66
2022/06/05 02:41:36;;;;;;;10.95;7.80;;;;;;;16.95;100.00;98960.22;5092957;28;20036;-66
2022/06/05 02:44:46;;;;;;;11.48;8.10;;;;;;;16.85;100.00;98951.47;5120640;27;20063;-67
2022/06/05 02:48:04;;;;;;;13.05;8.07;;;;;;;16.97;100.00;98957.44;5090844;28;20475;-65
2022/06/05 02:51:08;;;;;;;17.17;10.63;;;;;;;16.80;100.00;98954.53;5108997;28;20035;-65
2022/06/05 02:53:56;;;;;;;8.82;6.03;;;;;;;16.91;100.00;98958.00;5091863;28;20051;-66
2022/06/05 02:56:41;;;;;;;16.73;10.73;;;;;;;17.11;100.00;98958.81;5097221;28;20390;-64
2022/06/05 02:59:26;;;;;;;11.07;7.70;;;;;;;17.12;100.00;98965.78;5112137;28;20042;-65
2022/06/05 03:05:14;;;;;;;18.10;11.50;;;;;;;16.94;100.00;98969.13;5112766;28;20123;-65
2022/06/05 03:07:59;;;;;;;17.40;11.48;;;;;;;16.78;100.00;98963.59;5111996;28;20058;-65
2022/06/05 03:10:45;;;;;;;17.92;11.57;;;;;;;16.82;100.00;98970.25;5096776;28;20042;-64
2022/06/05 03:13:30;;;;;;;20.63;12.40;;;;;;;16.57;100.00;98975.97;5091661;28;20472;-66
2022/06/05 03:16:15;;;;;;;17.60;10.80;;;;;;;16.66;100.00;98973.47;5096511;28;20039;-66
2022/06/05 03:18:59;;;;;;;14.95;9.65;;;;;;;16.58;100.00;98979.47;5119744;27;20059;-65
2022/06/05 03:21:44;;;;;;;15.90;10.40;;;;;;;16.63;100.00;98977.22;5095425;28;20535;-66
2022/06/05 03:24:28;;;;;;;18.67;10.65;;;;;;;16.82;100.00;98970.25;5112612;28;20116;-67
2022/06/05 03:27:13;;;;;;;16.35;10.18;;;;;;;17.02;100.00;98978.19;5103768;28;20036;-65
2022/06/05 03:29:59;;;;;;;16.88;11.20;;;;;;;16.86;100.00;98975.13;5105687;28;20087;-65
2022/06/05 03:32:44;;;;;;;15.02;10.80;;;;;;;17.01;100.00;98976.50;5100277;28;20047;-65
2022/06/05 03:35:29;;;;;;;13.20;8.88;;;;;;;17.11;100.00;98980.84;5097693;28;20080;-66
2022/06/05 03:38:14;;;;;;;18.67;12.05;;;;;;;17.14;100.00;98984.19;5111951;28;20684;-65
2022/06/05 03:40:59;;;;;;;7.40;5.55;;;;;;;17.10;100.00;98988.91;5109143;28;20047;-66
2022/06/05 03:43:44;;;;;;;7.40;5.07;;;;;;;17.49;100.00;98988.78;5111485;28;20516;-65
2022/06/05 03:46:29;;;;;;;11.05;6.75;;;;;;;17.64;100.00;99001.59;5092352;28;20032;-65
2022/06/05 03:49:13;;;;;;;5.97;4.55;;;;;;;17.87;100.00;99006.50;5105048;28;20051;-66
2022/06/05 03:51:58;;;;;;;15.40;9.18;;;;;;;17.94;100.00;99015.53;5084687;28;20035;-65
2022/06/05 03:54:43;;;;;;;10.88;7.18;;;;;;;17.81;100.00;99010.56;5109259;28;20073;-66
2022/06/05 03:57:27;;;;;;;11.82;8.35;;;;;;;17.99;100.00;99015.09;5119326;27;20045;-66
2022/06/05 04:00:14;;;;;;;15.95;9.77;;;;;;;18.03;100.00;99015.63;5091633;28;20051;-65
2022/06/05 04:03:00;;;;;;;7.68;6.10;;;;;;;18.03;100.00;99013.81;5090042;28;20056;-65
2022/06/05 04:05:45;;;;;;;13.90;9.82;;;;;;;17.85;100.00;99016.41;5102874;28;20084;-66
2022/06/05 04:08:30;;;;;;;13.60;8.45;;;;;;;17.88;100.00;99013.47;5099752;28;20028;-68
2022/06/05 04:11:20;;;;;;;12.40;7.93;;;;;;;18.19;100.00;99002.59;5138324;27;20163;-65
2022/06/05 04:14:07;;;;;;;13.27;8.15;;;;;;;18.20;100.00;99012.22;5105728;28;20031;-64
2022/06/05 04:16:52;;;;;;;19.08;12.30;;;;;;;18.20;100.00;99016.69;5104474;27;20047;-64
2022/06/05 04:19:37;;;;;;;17.55;11.68;;;;;;;18.30;100.00;99020.09;5104311;28;20483;-65
2022/06/05 04:22:21;;;;;;;13.02;8.48;;;;;;;18.34;100.00;99024.13;5108262;28;20036;-65
2022/06/05 04:25:10;;;;;;;19.30;12.20;;;;;;;18.36;100.00;99021.31;5097216;28;20032;-64
2022/06/05 04:27:56;;;;;;;24.65;13.80;;;;;;;18.09;100.00;99025.63;5112331;28;20039;-67
2022/06/05 04:30:42;;;;;;;26.05;15.73;;;;;;;17.87;100.00;99024.22;5109582;28;20050;-65
2022/06/05 04:33:27;;;;;;;26.10;15.20;;;;;;;17.39;100.00;99025.09;5117837;27;20040;-62
2022/06/05 04:36:12;;;;;;;25.10;15.57;;;;;;;17.21;100.00;99027.63;5098709;28;20040;-65
2022/06/05 04:38:57;;;;;;;20.08;13.63;;;;;;;17.28;100.00;99036.69;5099898;28;20078;-65
2022/06/05 04:41:42;;;;;;;25.65;15.68;;;;;;;17.40;100.00;99039.97;5109696;27;20482;-66
2022/06/05 04:44:27;;;;;;;23.35;14.32;;;;;;;17.18;100.00;99035.84;5104973;28;20040;-66
2022/06/05 04:47:13;;;;;;;25.10;15.90;;;;;;;16.80;100.00;99038.34;5102062;28;20040;-65
2022/06/05 04:49:58;;;;;;;30.95;17.58;;;;;;;16.55;100.00;99036.09;5109703;28;20466;-65
2022/06/05 04:52:42;;;;;;;24.67;16.33;;;;;;;16.62;100.00;99024.00;5145886;27;20042;-64
2022/06/05 04:55:27;;;;;;;25.77;15.98;;;;;;;16.89;100.00;99028.75;5097028;28;20481;-65
2022/06/05 04:58:12;;;;;;;27.30;17.10;;;;;;;16.85;100.00;99018.44;5105824;28;20111;-65
2022/06/05 05:00:56;;;;;;;25.50;16.02;;;;;;;17.27;100.00;99016.47;5118128;28;20348;-65
2022/06/05 05:03:41;;;;;;;26.25;16.38;;;;;;;17.18;100.00;99014.66;5082332;28;20446;-66
2022/06/05 05:06:27;;;;;;;27.30;16.42;;;;;;;17.47;100.00;99001.38;5097503;28;20036;-66
2022/06/05 05:09:12;;;;;;;22.60;14.77;;;;;;;17.36;100.00;99001.53;5111534;28;20466;-64
2022/06/05 05:11:57;;;;;;;21.02;13.73;;;;;;;17.72;100.00;98995.56;5106750;28;20066;-66
2022/06/05 05:14:43;;;;;;;21.08;12.02;;;;;;;18.14;100.00;99004.03;5114355;28;20044;-66
2022/06/05 05:17:27;;;;;;;16.33;8.60;;;;;;;18.55;100.00;99012.41;5094857;28;20059;-65
2022/06/05 05:20:13;;;;;;;11.65;7.97;;;;;;;18.97;100.00;99012.75;5094526;28;20036;-66
2022/06/05 05:22:58;;;;;;;15.23;10.43;;;;;;;19.55;100.00;99015.81;5092652;28;20051;-64
2022/06/05 05:25:42;;;;;;;18.95;11.98;;;;;;;19.93;99.34;99015.50;5093371;28;20460;-66
2022/06/05 05:28:27;;;;;;;10.13;7.28;;;;;;;19.93;99.91;99015.50;5121319;27;20032;-66
2022/06/05 05:31:19;;;;;;;15.15;10.48;;;;;;;19.76;100.00;99016.44;5102998;28;20399;-65
2022/06/05 05:34:05;;;;;;;17.08;11.43;;;;;;;20.09;98.91;99011.25;5099211;28;20300;-66
2022/06/05 05:36:49;;;;;;;12.85;8.95;;;;;;;20.27;97.98;99013.00;5093153;28;20052;-66
2022/06/05 05:42:37;;;;;;;11.65;8.10;;;;;;;20.49;96.46;99011.53;5108165;28;20095;-66
2022/06/05 05:45:22;;;;;;;13.63;9.13;;;;;;;20.55;95.51;99010.03;5093176;28;20053;-64
2022/06/05 05:48:09;;;;;;;10.63;6.85;;;;;;;20.63;94.37;99012.72;5107158;28;20392;-65
2022/06/05 05:50:54;;;;;;;16.17;9.98;;;;;;;20.86;94.41;99019.22;5113923;28;20039;-65
2022/06/05 05:53:40;;;;;;;16.02;10.82;;;;;;;20.67;94.84;99018.53;5101515;28;20479;-65
2022/06/05 05:56:24;;;;;;;7.43;5.97;;;;;;;20.84;93.22;99021.22;5093285;28;20051;-65
2022/06/05 05:59:08;;;;;;;11.88;8.13;;;;;;;20.84;93.17;99016.69;5093005;28;20040;-66
2022/06/05 06:01:53;;;;;;;13.65;9.00;;;;;;;20.73;94.42;99009.88;5082620;28;20048;-67
2022/06/05 06:04:39;;;;;;;10.50;6.78;;;;;;;20.76;93.42;99009.56;5111167;28;20097;-64
2022/06/05 06:07:24;;;;;;;15.02;9.38;;;;;;;20.70;94.69;99010.22;5113711;28;20066;-65
2022/06/05 06:10:09;;;;;;;12.23;8.30;;;;;;;20.77;94.60;99008.56;5113684;28;20040;-65
2022/06/05 06:12:54;;;;;;;12.75;9.07;;;;;;;20.64;94.58;99002.91;5105353;28;20051;-66
2022/06/05 06:15:39;;;;;;;22.35;11.70;;;;;;;20.74;95.08;99002.75;5107164;28;20443;-65
2022/06/05 06:18:24;;;;;;;16.10;9.60;;;;;;;20.98;93.88;99001.94;5113819;28;20111;-66
2022/06/05 06:21:09;;;;;;;11.35;7.63;;;;;;;21.05;93.11;99016.22;5078504;28;20039;-66
2022/06/05 06:23:54;;;;;;;9.77;7.15;;;;;;;20.89;93.70;99021.56;5098653;28;20043;-65
2022/06/05 06:26:40;;;;;;;18.92;11.27;;;;;;;20.83;93.79;99028.38;5098738;28;20043;-66
2022/06/05 06:29:26;;;;;;;14.90;9.75;;;;;;;20.52;95.15;99024.50;5092686;28;20036;-66
2022/06/05 06:32:11;;;;;;;18.30;11.93;;;;;;;20.54;97.32;99027.00;5108302;28;20089;-65
2022/06/05 06:34:55;;;;;;;19.35;12.25;;;;;;;20.59;96.22;99024.69;5113367;28;20047;-65
2022/06/05 06:37:41;;;;;;;20.17;13.80;;;;;;;20.53;95.47;99025.34;5102403;28;20047;-65
2022/06/05 06:40:25;;;;;;;21.80;14.63;;;;;;;19.56;100.00;99033.44;5096843;28;20059;-65
2022/06/05 06:43:10;;;;;;;19.48;12.90;;;;;;;19.96;99.19;99037.44;5093446;28;20043;-64
2022/06/05 06:45:55;;;;;;;21.85;13.32;;;;;;;20.39;95.88;99030.31;5098574;28;20046;-62
2022/06/05 06:48:41;;;;;;;21.50;12.35;;;;;;;20.86;94.88;99025.38;5101920;28;20035;-66
2022/06/05 06:51:26;;;;;;;19.55;11.63;;;;;;;22.10;87.61;99028.00;5102993;28;20062;-71
2022/06/05 06:54:15;;;;;;;19.17;12.13;;;;;;;22.58;83.80;99025.22;5101684;28;20060;-71
2022/06/05 06:57:00;;;;;;;17.48;10.20;;;;;;;22.91;82.19;99015.31;5075508;28;20039;-69
2022/06/05 06:59:47;;;;;;;18.38;11.63;;;;;;;23.23;81.14;99016.03;5117686;27;20066;-69
2022/06/05 07:02:32;;;;;;;16.02;11.00;;;;;;;24.14;76.82;99011.50;5093472;28;20459;-70
2022/06/05 07:05:17;;;;;;;13.85;9.18;;;;;;;24.42;74.76;99012.63;5101612;28;20032;-69
2022/06/05 07:08:02;;;;;;;20.42;12.40;;;;;;;24.08;75.11;99020.28;5101204;28;20044;-69
2022/06/05 07:10:48;;;;;;;16.85;9.93;;;;;;;24.29;74.90;99022.19;5096142;28;20047;-68
2022/06/05 07:13:33;;;;;;;15.77;10.20;;;;;;;24.02;71.81;99021.88;5096855;28;20032;-69
2022/06/05 07:16:20;;;;;;;8.88;6.53;;;;;;;23.68;72.74;99028.63;5092594;28;20044;-69
2022/06/05 07:19:05;;;;;;;7.65;5.45;;;;;;;23.23;70.67;99019.53;5084878;28;20039;-67
2022/06/05 07:21:50;;;;;;;8.73;5.35;;;;;;;24.17;63.35;99024.53;5110890;27;20368;-68
2022/06/05 07:24:36;;;;;;;5.80;4.18;;;;;;;24.27;60.83;99015.38;5093555;28;20064;-69
2022/06/05 07:27:25;;;;;;;6.97;5.28;;;;;;;24.20;65.30;99020.66;5090214;28;20372;-67
2022/06/05 07:30:12;;;;;;;8.85;6.13;;;;;;;24.92;63.73;99018.06;5118631;27;20333;-70
2022/06/05 07:33:04;;;;;;;15.35;9.20;;;;;;;25.31;63.99;99015.09;5095804;28;20613;-70
2022/06/05 07:35:56;;;;;;;5.45;4.25;;;;;;;24.85;58.72;99014.50;5109624;27;20066;-69
2022/06/05 07:38:43;;;;;;;5.97;4.05;;;;;;;25.13;57.88;99008.38;5100734;28;20032;-70
2022/06/05 07:41:42;;;;;;;5.65;4.00;;;;;;;24.60;58.18;99001.50;5061153;28;20058;-70
2022/06/05 07:44:32;;;;;;;9.27;3.95;;;;;;;25.21;56.42;99005.53;5093745;28;20036;-69
2022/06/05 07:47:17;;;;;;;6.00;4.05;;;;;;;24.91;56.55;99000.34;5078728;28;20042;-72
2022/06/05 07:50:04;;;;;;;5.53;3.92;;;;;;;24.93;56.22;99001.00;5091612;28;20360;-69
2022/06/05 07:55:56;;;;;;;6.88;4.50;;;;;;;26.20;53.54;98985.81;5108761;28;20047;-69
2022/06/05 07:58:41;;;;;;;11.38;7.15;;;;;;;25.45;55.41;98994.53;5096233;28;20040;-69
2022/06/05 08:01:27;;;;;;;8.50;4.82;;;;;;;25.70;53.72;98992.25;5097807;28;20035;-69
2022/06/05 08:04:11;;;;;;;4.95;3.67;;;;;;;25.25;54.27;98994.44;5097832;28;20043;-69
2022/06/05 08:06:59;;;;;;;5.65;3.83;;;;;;;24.78;56.41;98992.16;5113765;28;20036;-69
2022/06/05 08:09:43;;;;;;;4.72;3.75;;;;;;;25.36;54.85;98980.47;5102659;28;20510;-68
2022/06/05 08:12:31;;;;;;;5.40;3.90;;;;;;;25.50;54.51;98981.38;5106441;28;20371;-70
2022/06/05 08:15:16;;;;;;;5.15;3.55;;;;;;;26.47;52.53;98976.19;5103823;28;20044;-69
2022/06/05 08:18:02;;;;;;;5.03;3.70;;;;;;;26.03;52.23;98976.47;5104504;28;20036;-69
2022/06/05 08:20:49;;;;;;;5.13;3.95;;;;;;;26.02;52.33;98981.00;5107329;28;20043;-69
2022/06/05 08:23:35;;;;;;;6.53;3.95;;;;;;;26.46;50.88;98982.59;5120134;27;20061;-69
2022/06/05 08:26:20;;;;;;;3.80;3.15;;;;;;;26.07;51.62;98988.44;5091718;28;20062;-69
2022/06/05 08:29:05;;;;;;;4.75;3.33;;;;;;;26.12;51.60;98977.94;5076963;28;20534;-72
2022/06/05 08:31:51;;;;;;;4.80;3.63;;;;;;;26.84;50.12;98984.66;5069992;28;20085;-73
2022/06/05 08:34:37;;;;;;;5.57;3.92;;;;;;;26.99;48.77;98987.16;5094793;28;20412;-68
2022/06/05 08:44:03;;;;;;;6.28;3.47;;;;;;;27.33;47.68;98987.13;5108472;28;20036;-69
2022/06/05 08:47:01;;;;;;;5.53;3.03;;;;;;;26.73;47.63;98993.34;5092049;28;20032;-70
2022/06/05 08:49:48;;;;;;;5.53;3.50;;;;;;;27.16;47.04;98990.25;5111781;28;20036;-70
2022/06/05 08:52:48;;;;;;;4.85;3.22;;;;;;;26.50;47.63;98987.34;5115921;28;20035;-70
2022/06/05 08:55:37;;;;;;;4.13;3.17;;;;;;;27.13;47.34;98985.28;5113308;28;20142;-70
2022/06/05 08:58:37;;;;;;;3.95;2.95;;;;;;;28.21;44.64;98988.66;5109131;28;20046;-70
2022/06/05 09:01:49;;;;;;;3.50;2.95;;;;;;;27.62;46.32;98990.34;5113870;28;20040;-70
2022/06/05 09:04:53;;;;;;;4.65;3.60;;;;;;;27.20;46.12;98979.91;5114086;28;20489;-71
2022/06/05 09:07:45;;;;;;;4.68;3.35;;;;;;;27.47;45.49;98974.47;5114590;28;20047;-71
2022/06/05 09:10:47;;;;;;;5.03;2.95;;;;;;;28.20;44.13;98968.19;5112192;28;20039;-70
2022/06/05 09:13:44;;;;;;;4.72;3.25;;;;;;;28.62;43.46;98955.06;5095045;28;20068;-70
2022/06/05 09:16:33;;;;;;;3.97;3.05;;;;;;;28.57;44.07;98954.91;5093918;28;20028;-72
2022/06/05 09:19:26;;;;;;;5.03;3.03;;;;;;;29.30;42.27;98940.97;5093475;28;20040;-70
2022/06/05 09:22:48;;;;;;;4.95;3.15;;;;;;;29.65;42.12;98942.25;5088213;28;20123;-70
2022/06/05 09:25:47;;;;;;;3.38;2.72;;;;;;;29.07;41.69;98944.34;5081991;28;20115;-71
2022/06/05 09:28:51;;;;;;;4.80;3.03;;;;;;;29.16;40.68;98947.56;5093031;28;20112;-69
2022/06/05 09:31:46;;;;;;;5.03;3.25;;;;;;;28.84;41.82;98940.38;5105748;28;20043;-70
2022/06/05 09:34:53;;;;;;;3.70;2.72;;;;;;;29.26;41.17;98935.19;5088590;28;20039;-70
2022/06/05 09:37:52;;;;;;;3.13;2.45;;;;;;;29.68;39.36;98938.28;5103023;28;20044;-72
2022/06/05 09:40:44;;;;;;;4.30;2.67;;;;;;;29.37;39.35;98939.03;5085301;28;20046;-69
2022/06/05 09:43:53;;;;;;;3.88;2.65;;;;;;;29.60;39.86;98928.63;5114952;28;20096;-70
2022/06/05 09:46:45;;;;;;;3.72;2.53;;;;;;;30.36;38.26;98928.19;5085362;28;20039;-70
2022/06/05 09:49:37;;;;;;;4.38;3.08;;;;;;;29.75;39.20;98926.34;5107067;28;20032;-71
2022/06/05 09:52:27;;;;;;;5.15;2.30;;;;;;;29.65;39.97;98939.56;5074907;28;20040;-69
2022/06/05 09:55:40;;;;;;;6.00;2.75;;;;;;;29.48;40.35;98931.22;5079435;28;20051;-70
2022/06/05 09:59:05;;;;;;;3.47;2.53;;;;;;;29.94;39.96;98920.06;5103312;28;20044;-72
2022/06/05 10:01:55;;;;;;;4.65;3.05;;;;;;;28.83;40.40;98915.28;5102950;28;20032;-71
2022/06/05 10:04:40;;;;;;;2.90;2.55;;;;;;;29.03;40.07;98922.41;5111201;28;20051;-70
2022/06/05 10:07:38;;;;;;;3.28;2.47;;;;;;;29.68;39.32;98935.56;5093113;28;20048;-71
2022/06/05 10:10:34;;;;;;;3.97;3.05;;;;;;;29.73;39.70;98925.75;5103637;28;20047;-71
2022/06/05 10:13:39;;;;;;;3.33;2.60;;;;;;;29.92;39.09;98923.00;5084478;28;20043;-71
2022/06/05 10:16:33;;;;;;;5.07;3.25;;;;;;;29.58;39.68;98923.44;5081253;28;20044;-70
2022/06/05 10:19:51;;;;;;;4.97;3.40;;;;;;;31.03;36.62;98913.78;5105376;28;20044;-71
2022/06/05 10:22:46;;;;;;;4.38;2.55;;;;;;;30.93;36.01;98920.63;5105261;28;20055;-74
2022/06/05 10:25:40;;;;;;;2.97;2.22;;;;;;;31.04;35.85;98913.56;5086172;28;20042;-74
2022/06/05 10:28:30;;;;;;;3.40;2.17;;;;;;;31.80;34.36;98919.13;5069889;28;20104;-73
2022/06/05 10:31:20;;;;;;;4.07;2.60;;;;;;;31.58;34.38;98911.72;5108557;28;20470;-74
2022/06/05 10:34:12;;;;;;;4.35;2.30;;;;;;;31.18;34.81;98911.44;5111498;28;20039;-74
2022/06/05 10:37:10;;;;;;;2.88;2.15;;;;;;;30.62;36.04;98909.06;5097724;28;20046;-73
2022/06/05 10:40:32;;;;;;;3.83;2.33;;;;;;;29.63;37.31;98915.50;5111446;28;20048;-73
2022/06/05 10:43:29;;;;;;;3.70;2.00;;;;;;;31.02;35.61;98910.28;5112915;28;20490;-74
2022/06/05 10:46:27;;;;;;;2.55;2.05;;;;;;;30.22;35.76;98913.25;5092258;28;20102;-72
2022/06/05 10:49:20;;;;;;;3.95;2.58;;;;;;;29.30;37.17;98914.00;5138013;27;20252;-73
2022/06/05 10:52:30;;;;;;;3.28;2.35;;;;;;;29.79;36.75;98901.59;5116313;28;20039;-72
2022/06/05 10:55:42;;;;;;;3.13;2.00;;;;;;;30.31;34.19;98905.66;5105878;28;20394;-69
2022/06/05 10:58:38;;;;;;;2.42;1.73;;;;;;;30.19;34.52;98901.06;5101352;28;20047;-70
2022/06/05 11:01:45;;;;;;;2.75;1.75;;;;;;;29.27;35.93;98900.97;5104951;28;20480;-69
2022/06/05 11:04:38;;;;;;;2.33;1.63;;;;;;;28.67;37.12;98907.78;5077141;28;20062;-69
2022/06/05 11:07:53;;;;;;;3.28;2.25;;;;;;;29.49;35.70;98906.72;5070116;28;20042;-70
2022/06/05 11:14:43;;;;;;;2.20;1.50;;;;;;;29.77;34.58;98882.13;5107458;28;20058;-70
2022/06/05 11:17:30;;;;;;;3.35;1.67;;;;;;;30.08;34.22;98885.63;5102319;28;20048;-70
2022/06/05 11:20:22;;;;;;;5.13;3.08;;;;;;;31.04;33.64;98883.00;5098525;28;20043;-71
2022/06/05 11:23:17;;;;;;;2.63;1.45;;;;;;;31.20;31.85;98882.25;5109664;28;20414;-70
2022/06/05 11:26:25;;;;;;;2.92;2.00;;;;;;;30.66;33.45;98885.94;5090782;28;20045;-69
2022/06/05 11:29:34;;;;;;;3.00;1.63;;;;;;;30.71;31.70;98880.66;5092741;28;20043;-70
2022/06/05 11:32:45;;;;;;;2.78;1.50;;;;;;;31.01;32.03;98878.88;5093093;28;20068;-70
2022/06/05 11:35:52;;;;;;;2.85;1.60;;;;;;;30.89;32.15;98869.97;5083678;28;20539;-71
2022/06/05 11:39:05;;;;;;;2.33;1.70;;;;;;;31.21;32.04;98854.16;5076483;28;20047;-72
2022/06/05 11:42:00;;;;;;;3.60;1.65;;;;;;;30.99;32.54;98859.38;5097674;28;20047;-73
2022/06/05 11:45:03;;;;;;;2.13;1.75;;;;;;;31.79;31.96;98860.66;5093713;28;20067;-73
2022/06/05 11:48:08;;;;;;;6.88;2.08;;;;;;;31.87;31.71;98857.56;5109741;28;20058;-73
2022/06/05 11:51:23;;;;;;;2.40;2.08;;;;;;;32.11;32.59;98854.72;5090295;28;20059;-73
2022/06/05 11:54:11;;;;;;;6.18;2.38;;;;;;;30.97;35.82;98851.50;5090857;28;20056;-72
2022/06/05 11:57:21;;;;;;;4.38;2.60;;;;;;;31.69;35.04;98836.94;5103802;28;20044;-72
2022/06/05 12:00:18;;;;;;;3.33;2.75;;;;;;;30.49;37.40;98835.31;5100409;28;20039;-72
2022/06/05 12:03:28;;;;;;;4.55;3.22;;;;;;;31.27;36.49;98838.03;5124770;27;20059;-73
2022/06/05 12:06:39;;;;;;;4.85;3.13;;;;;;;29.61;40.07;98825.03;5090605;28;20040;-70
2022/06/05 12:09:33;;;;;;;6.22;2.90;;;;;;;30.77;38.09;98826.69;5103741;28;20118;-70
2022/06/05 12:12:23;;;;;;;3.92;3.08;;;;;;;31.17;37.88;98822.41;5088091;28;20047;-70
2022/06/05 12:15:27;;;;;;;4.07;3.08;;;;;;;29.29;41.47;98826.06;5076737;28;20470;-69
2022/06/05 12:18:22;;;;;;;6.68;3.55;;;;;;;29.95;41.26;98822.66;5092854;28;20036;-69
2022/06/05 12:21:19;;;;;;;3.80;2.70;;;;;;;31.07;38.71;98821.16;5089072;28;20035;-69
2022/06/05 12:24:23;;;;;;;4.68;3.42;;;;;;;31.28;38.18;98824.25;5094734;28;20495;-69
2022/06/05 12:27:16;;;;;;;10.57;3.40;;;;;;;31.18;37.29;98807.81;5092410;28;20032;-71
2022/06/05 12:30:15;;;;;;;3.67;2.72;;;;;;;29.38;39.27;98804.97;5108266;28;20391;-71
2022/06/05 12:33:26;;;;;;;3.65;2.70;;;;;;;29.85;38.14;98798.94;5104399;28;20044;-71
2022/06/05 12:36:29;;;;;;;;;;;;;;;30.78;35.83;98788.66;5103142;28;20031;-70
2022/06/05 12:39:19;;;;;;;4.25;2.85;;;;;;;30.60;36.87;98787.72;5109051;28;20375;-70
2022/06/05 12:42:41;;;;;;;3.30;2.42;;;;;;;31.36;38.12;98796.00;5110337;28;20044;-69
2022/06/05 12:45:29;;;;;;;5.90;2.97;;;;;;;30.95;39.09;98788.75;5070208;28;20117;-68
2022/06/05 12:48:26;;;;;;;4.57;2.85;;;;;;;31.22;37.94;98779.25;5103295;28;20036;-69
2022/06/05 12:51:19;;;;;;;3.80;2.85;;;;;;;31.70;37.55;98784.44;5109376;28;20036;-69
2022/06/05 12:54:23;;;;;;;3.25;2.58;;;;;;;32.37;37.33;98770.31;5110681;28;20363;-69
2022/06/05 12:57:15;;;;;;;3.67;2.67;;;;;;;30.32;40.72;98775.78;5114094;28;20043;-68
2022/06/05 13:00:31;;;;;;;3.60;2.60;;;;;;;30.35;38.92;98764.50;5109197;28;20056;-70
2022/06/05 13:03:55;;;;;;;3.55;2.40;;;;;;;29.55;39.53;98750.38;5111725;28;20036;-70
2022/06/05 13:06:47;;;;;;;3.08;2.58;;;;;;;29.88;39.38;98749.88;5090955;28;20036;-70
2022/06/05 13:09:35;;;;;;;3.70;2.35;;;;;;;30.19;38.48;98751.66;5082395;28;20048;-70
2022/06/05 13:12:39;;;;;;;3.65;2.22;;;;;;;29.59;39.74;98741.63;5103028;28;20076;-70
2022/06/05 13:15:30;;;;;;;3.85;2.55;;;;;;;28.94;41.34;98743.13;5105800;28;20058;-69
2022/06/05 13:18:41;;;;;;;2.92;2.20;;;;;;;28.17;42.47;98737.91;5110112;28;20043;-69
2022/06/05 13:21:50;;;;;;;5.00;2.40;;;;;;;30.05;39.44;98741.09;5113250;28;20036;-70
2022/06/05 13:24:54;;;;;;;2.92;2.20;;;;;;;30.69;39.78;98738.72;5099624;28;20505;-71
2022/06/05 13:28:02;;;;;;;3.90;2.67;;;;;;;31.17;38.39;98727.75;5113858;28;20435;-70
2022/06/05 13:31:41;;;;;;;4.03;2.55;;;;;;;31.03;38.85;98725.34;5112646;28;20035;-69
2022/06/05 13:34:51;;;;;;;3.75;2.50;;;;;;;30.57;39.15;98741.44;5053350;28;20072;-69
2022/06/05 13:37:55;;;;;;;2.42;1.98;;;;;;;30.64;38.74;98747.53;5038079;28;20132;-69
2022/06/05 13:40:58;;;;;;;4.80;2.38;;;;;;;30.26;40.40;98733.47;5098208;28;20031;-68
2022/06/05 13:43:48;;;;;;;3.53;2.40;;;;;;;29.87;40.51;98737.47;5122295;28;20031;-71